Time;durP1;ratioP1;P1;durP2;ratioP2;P2;SDS_P1;SDS_P2;PMS_P1;PMS_P2;Temp;Humidity;BMP_temperature;BMP_pressure;BME280_temperature;BME280_humidity;BME280_pressure;Samples;Min_cycle;Max_cycle;Signal;HPM_P1;HPM_P2
2023/12/03 00:01:11;;;;;;;1.10;1.10;;;;;;;-3.93;100.00;99632.03;5099191;28;20135;-58
2023/12/03 00:03:38;;;;;;;1.00;1.00;;;;;;;-3.94;100.00;99639.09;5099852;28;20044;-58
2023/12/03 00:06:06;;;;;;;0.90;0.90;;;;;;;-3.96;100.00;99648.03;5095908;28;20048;-58
2023/12/03 00:08:33;;;;;;;0.88;0.88;;;;;;;-3.95;100.00;99647.06;5094713;28;20138;-60
2023/12/03 00:11:00;;;;;;;1.10;1.10;;;;;;;-3.95;100.00;99640.03;5089306;28;20047;-60
2023/12/03 00:13:27;;;;;;;1.00;1.00;;;;;;;-3.93;100.00;99639.91;5100637;28;20047;-60
2023/12/03 00:15:54;;;;;;;1.08;1.08;;;;;;;-3.93;100.00;99645.13;5096761;28;20044;-60
2023/12/03 00:18:21;;;;;;;1.00;1.00;;;;;;;-3.83;100.00;99651.19;5090963;28;20058;-60
2023/12/03 00:20:48;;;;;;;0.93;0.93;;;;;;;-3.76;100.00;99652.28;5103872;27;20048;-60
2023/12/03 00:23:18;;;;;;;1.00;1.00;;;;;;;-3.69;100.00;99657.81;5092594;28;20126;-60
2023/12/03 00:25:45;;;;;;;1.00;1.00;;;;;;;-3.71;100.00;99644.00;5091211;27;20431;-59
2023/12/03 00:28:12;;;;;;;1.10;1.10;;;;;;;-3.78;100.00;99648.16;5094176;28;20382;-60
2023/12/03 00:30:38;;;;;;;1.00;1.00;;;;;;;-3.81;100.00;99646.66;5087363;28;20039;-60
2023/12/03 00:33:05;;;;;;;0.93;0.93;;;;;;;-3.84;100.00;99633.84;5092753;28;20072;-59
2023/12/03 00:35:33;;;;;;;0.90;0.90;;;;;;;-3.78;100.00;99635.88;5093735;28;20048;-59
2023/12/03 00:37:59;;;;;;;0.88;0.88;;;;;;;-3.79;100.00;99636.03;5099201;28;20533;-59
2023/12/03 00:40:28;;;;;;;1.00;1.00;;;;;;;-3.63;100.00;99635.44;5090788;28;20048;-59
2023/12/03 00:42:55;;;;;;;1.10;1.10;;;;;;;-3.76;100.00;99630.50;5093885;28;20086;-60
2023/12/03 00:45:22;;;;;;;1.10;1.10;;;;;;;-3.72;100.00;99634.47;5093380;28;20460;-60
2023/12/03 00:47:49;;;;;;;0.90;0.90;;;;;;;-3.70;100.00;99645.66;5086081;27;20040;-60
2023/12/03 00:50:17;;;;;;;1.00;1.00;;;;;;;-3.79;100.00;99634.25;5098360;27;20053;-60
2023/12/03 00:52:44;;;;;;;1.00;1.00;;;;;;;-3.74;100.00;99642.50;5093350;28;20040;-59
2023/12/03 00:55:11;;;;;;;1.00;1.00;;;;;;;-3.75;100.00;99637.41;5098871;28;20047;-59
2023/12/03 00:57:39;;;;;;;0.90;0.90;;;;;;;-3.73;100.00;99633.66;5091404;28;20036;-60
2023/12/03 01:00:08;;;;;;;0.90;0.90;;;;;;;-3.76;100.00;99633.94;5098744;28;20079;-60
2023/12/03 01:02:35;;;;;;;0.93;0.93;;;;;;;-3.85;100.00;99633.97;5096806;28;20067;-58
2023/12/03 01:05:02;;;;;;;1.00;1.00;;;;;;;-3.85;100.00;99633.97;5096862;28;20126;-58
2023/12/03 01:07:30;;;;;;;1.08;1.08;;;;;;;-3.80;100.00;99645.66;5090381;28;20048;-58
2023/12/03 01:09:57;;;;;;;1.10;1.10;;;;;;;-3.80;100.00;99643.06;5094373;28;20231;-58
2023/12/03 01:12:24;;;;;;;1.00;1.00;;;;;;;-3.84;100.00;99640.84;5090502;28;20676;-58
2023/12/03 01:14:52;;;;;;;0.90;0.90;;;;;;;-3.73;100.00;99649.38;5094702;28;20570;-58
2023/12/03 01:17:19;;;;;;;1.00;1.00;;;;;;;-3.85;100.00;99644.44;5093434;28;20572;-58
2023/12/03 01:19:46;;;;;;;1.00;1.00;;;;;;;-3.87;100.00;99652.44;5091402;28;20146;-58
2023/12/03 01:22:13;;;;;;;1.10;1.10;;;;;;;-3.83;100.00;99653.00;5096710;28;20275;-57
2023/12/03 01:24:40;;;;;;;0.90;0.90;;;;;;;-3.85;100.00;99655.75;5097401;28;20256;-58
2023/12/03 01:27:07;;;;;;;1.00;1.00;;;;;;;-3.81;100.00;99657.13;5094751;28;20040;-57
2023/12/03 01:29:34;;;;;;;1.02;1.02;;;;;;;-3.83;100.00;99659.06;5097270;28;20035;-58
2023/12/03 01:32:03;;;;;;;1.00;1.00;;;;;;;-3.86;100.00;99659.34;5090534;28;20095;-59
2023/12/03 01:34:30;;;;;;;0.90;0.90;;;;;;;-3.81;100.00;99658.91;5091769;28;20162;-58
2023/12/03 01:36:57;;;;;;;1.00;1.00;;;;;;;-3.85;100.00;99660.97;5088147;28;20125;-58
2023/12/03 01:39:24;;;;;;;1.00;1.00;;;;;;;-3.91;100.00;99661.53;5089419;27;20458;-58
2023/12/03 01:41:52;;;;;;;1.10;1.10;;;;;;;-3.96;100.00;99663.75;5090483;28;20044;-58
2023/12/03 01:44:19;;;;;;;0.95;0.95;;;;;;;-4.00;100.00;99667.59;5098670;28;20039;-58
2023/12/03 01:46:47;;;;;;;0.90;0.90;;;;;;;-4.00;100.00;99657.13;5093628;27;20142;-58
2023/12/03 01:49:18;;;;;;;1.00;1.00;;;;;;;-3.85;100.00;99670.63;5105277;27;20044;-58
2023/12/03 01:51:45;;;;;;;1.00;1.00;;;;;;;-3.94;100.00;99667.88;5091395;28;20054;-58
2023/12/03 01:54:12;;;;;;;0.90;0.90;;;;;;;-4.01;100.00;99671.19;5092091;27;20046;-58
2023/12/03 01:56:39;;;;;;;1.00;1.00;;;;;;;-3.93;100.00;99676.56;5093541;28;20047;-58
2023/12/03 01:59:06;;;;;;;1.00;1.00;;;;;;;-3.95;100.00;99670.63;5094294;28;20126;-58
2023/12/03 02:01:33;;;;;;;1.00;1.00;;;;;;;-3.90;100.00;99676.28;5092683;28;20055;-62
2023/12/03 02:04:00;;;;;;;0.95;0.95;;;;;;;-4.00;100.00;99670.22;5097217;27;20071;-58
2023/12/03 02:06:29;;;;;;;0.93;0.93;;;;;;;-4.01;100.00;99676.44;5086700;28;20055;-58
2023/12/03 02:08:56;;;;;;;1.00;1.00;;;;;;;-3.99;100.00;99683.19;5092601;28;20121;-57
2023/12/03 02:11:23;;;;;;;1.05;1.05;;;;;;;-3.82;100.00;99689.53;5093855;28;20046;-58
2023/12/03 02:13:51;;;;;;;1.00;1.00;;;;;;;-3.91;100.00;99690.34;5098666;28;20039;-59
2023/12/03 02:16:18;;;;;;;0.90;0.90;;;;;;;-4.07;100.00;99682.22;5087998;27;20048;-58
2023/12/03 02:18:45;;;;;;;0.98;0.98;;;;;;;-3.97;100.00;99689.13;5090974;28;20113;-58
2023/12/03 02:21:12;;;;;;;0.90;0.90;;;;;;;-3.94;100.00;99686.22;5095633;28;20054;-58
2023/12/03 02:23:40;;;;;;;1.00;1.00;;;;;;;-4.05;100.00;99685.53;5100635;28;20519;-59
2023/12/03 02:26:07;;;;;;;1.00;1.00;;;;;;;-4.08;100.00;99688.41;5095388;28;20043;-58
2023/12/03 02:28:34;;;;;;;1.00;1.00;;;;;;;-4.14;100.00;99692.41;5087266;28;20052;-58
2023/12/03 02:31:02;;;;;;;0.95;0.95;;;;;;;-4.10;100.00;99692.97;5088826;28;20047;-58
2023/12/03 02:33:29;;;;;;;1.02;1.02;;;;;;;-4.05;100.00;99696.00;5096735;28;20047;-58
2023/12/03 02:35:56;;;;;;;1.00;1.00;;;;;;;-4.06;100.00;99689.13;5087502;28;20127;-58
2023/12/03 02:38:23;;;;;;;1.10;1.10;;;;;;;-4.09;100.00;99689.38;5088695;28;20174;-58
2023/12/03 02:40:51;;;;;;;1.10;1.10;;;;;;;-3.99;100.00;99690.22;5088147;28;20262;-58
2023/12/03 02:43:18;;;;;;;1.00;1.00;;;;;;;-4.22;100.00;99694.88;5091952;28;20044;-58
2023/12/03 02:45:45;;;;;;;1.00;1.00;;;;;;;-4.27;100.00;99694.44;5092414;28;20044;-58
2023/12/03 02:48:12;;;;;;;1.00;1.00;;;;;;;-4.29;100.00;99699.84;5095267;28;20459;-58
2023/12/03 02:50:39;;;;;;;1.00;1.00;;;;;;;-4.26;100.00;99699.56;5090748;28;20056;-58
2023/12/03 02:53:06;;;;;;;1.00;1.00;;;;;;;-4.29;100.00;99693.75;5087955;28;20043;-58
2023/12/03 02:55:33;;;;;;;1.00;1.00;;;;;;;-4.33;100.00;99690.59;5087603;28;20127;-58
2023/12/03 02:58:01;;;;;;;1.00;1.00;;;;;;;-4.37;100.00;99694.44;5091396;28;20135;-58
2023/12/03 03:00:28;;;;;;;1.00;1.00;;;;;;;-4.45;100.00;99700.34;5094259;28;20063;-58
2023/12/03 03:02:55;;;;;;;1.00;1.00;;;;;;;-4.39;100.00;99702.44;5089425;28;20135;-58
2023/12/03 03:05:23;;;;;;;1.00;1.00;;;;;;;-4.49;100.00;99703.34;5098115;28;20063;-58
2023/12/03 03:07:50;;;;;;;0.98;0.98;;;;;;;-4.49;100.00;99703.34;5090652;28;20044;-58
2023/12/03 03:10:16;;;;;;;1.00;1.00;;;;;;;-4.40;100.00;99705.19;5094538;28;20101;-58
2023/12/03 03:12:43;;;;;;;1.00;1.00;;;;;;;-4.40;100.00;99710.41;5085843;28;20032;-58
2023/12/03 03:15:14;;;;;;;0.90;0.90;;;;;;;-4.47;100.00;99707.50;5093653;28;20109;-58
2023/12/03 03:17:41;;;;;;;1.10;1.10;;;;;;;-4.57;100.00;99707.50;5087450;28;20566;-58
2023/12/03 03:20:09;;;;;;;1.02;1.02;;;;;;;-4.64;100.00;99711.59;5091945;28;20127;-58
2023/12/03 03:22:36;;;;;;;1.00;1.00;;;;;;;-4.66;100.00;99712.69;5088422;28;20245;-58
2023/12/03 03:25:04;;;;;;;1.10;1.10;;;;;;;-4.69;100.00;99711.19;5091948;28;20504;-58
2023/12/03 03:27:31;;;;;;;1.00;1.00;;;;;;;-4.72;100.00;99711.41;5089835;28;20056;-58
2023/12/03 03:29:58;;;;;;;1.08;1.08;;;;;;;-4.76;100.00;99712.66;5092919;28;20043;-58
2023/12/03 03:32:27;;;;;;;1.10;1.10;;;;;;;-4.80;100.00;99716.50;5091610;28;20533;-58
2023/12/03 03:34:54;;;;;;;1.00;1.00;;;;;;;-4.82;100.00;99724.50;5097525;28;20073;-58
2023/12/03 03:37:20;;;;;;;1.00;1.00;;;;;;;-4.83;100.00;99722.00;5094246;28;20043;-58
2023/12/03 03:39:47;;;;;;;1.10;1.10;;;;;;;-4.88;100.00;99724.16;5085643;28;20062;-58
2023/12/03 03:42:15;;;;;;;0.90;0.90;;;;;;;-4.97;100.00;99725.78;5095109;28;20056;-58
2023/12/03 03:44:41;;;;;;;1.10;1.10;;;;;;;-4.95;100.00;99739.53;5090557;28;20051;-57
2023/12/03 03:47:08;;;;;;;1.10;1.10;;;;;;;-4.97;100.00;99735.41;5096197;28;20131;-57
2023/12/03 03:49:37;;;;;;;0.90;0.90;;;;;;;-4.92;100.00;99741.06;5092062;28;20040;-58
2023/12/03 03:52:06;;;;;;;1.10;1.10;;;;;;;-4.95;100.00;99733.50;5091297;28;20040;-57
2023/12/03 03:54:32;;;;;;;1.00;1.00;;;;;;;-4.95;100.00;99734.31;5094454;28;20051;-58
2023/12/03 03:56:59;;;;;;;1.00;1.00;;;;;;;-4.92;100.00;99744.50;5090575;28;20048;-57
2023/12/03 03:59:26;;;;;;;0.98;0.98;;;;;;;-4.89;100.00;99748.66;5089425;28;20070;-57
2023/12/03 04:01:53;;;;;;;1.10;1.10;;;;;;;-4.90;100.00;99747.00;5081705;28;20159;-59
2023/12/03 04:04:20;;;;;;;0.93;0.93;;;;;;;-4.84;100.00;99754.31;5097465;27;20467;-57
2023/12/03 04:06:49;;;;;;;0.98;0.98;;;;;;;-4.82;100.00;99755.00;5086338;27;20048;-58
2023/12/03 04:09:16;;;;;;;1.02;1.02;;;;;;;-4.80;100.00;99761.78;5096517;28;20060;-58
2023/12/03 04:11:44;;;;;;;1.10;1.10;;;;;;;-4.77;100.00;99768.53;5097102;28;20036;-58
2023/12/03 04:14:12;;;;;;;1.00;1.00;;;;;;;-4.74;100.00;99763.06;5097423;27;20081;-57
2023/12/03 04:16:39;;;;;;;1.10;1.10;;;;;;;-4.75;100.00;99755.34;5097946;28;20053;-58
2023/12/03 04:19:06;;;;;;;1.08;1.08;;;;;;;-4.70;100.00;99761.81;5097920;27;20039;-58
2023/12/03 04:21:33;;;;;;;0.90;0.90;;;;;;;-4.63;100.00;99764.75;5096881;27;20039;-58
2023/12/03 04:24:02;;;;;;;1.00;1.00;;;;;;;-4.68;100.00;99767.75;5094186;28;20040;-58
2023/12/03 04:26:29;;;;;;;1.10;1.10;;;;;;;-4.61;100.00;99763.66;5089024;28;20440;-58
2023/12/03 04:28:56;;;;;;;0.90;0.90;;;;;;;-4.58;100.00;99765.16;5090764;28;20146;-58
2023/12/03 04:31:25;;;;;;;0.82;0.82;;;;;;;-4.64;100.00;99778.75;5096158;28;20054;-58
2023/12/03 04:33:52;;;;;;;0.98;0.98;;;;;;;-4.67;100.00;99777.25;5097231;28;20039;-58
2023/12/03 04:36:19;;;;;;;1.00;1.00;;;;;;;-4.61;100.00;99779.34;5093220;28;20135;-58
2023/12/03 04:38:46;;;;;;;1.00;1.00;;;;;;;-4.66;100.00;99786.75;5108072;27;20317;-58
2023/12/03 04:41:14;;;;;;;1.00;1.00;;;;;;;-4.68;100.00;99772.97;5097269;28;20563;-58
2023/12/03 04:43:41;;;;;;;1.10;1.10;;;;;;;-4.58;100.00;99773.03;5108103;27;20770;-58
2023/12/03 04:46:09;;;;;;;1.00;1.00;;;;;;;-4.74;100.00;99776.13;5095556;27;20062;-58
2023/12/03 04:48:36;;;;;;;0.90;0.90;;;;;;;-4.67;100.00;99772.00;5086950;28;20101;-58
2023/12/03 04:51:03;;;;;;;0.98;0.98;;;;;;;-4.78;100.00;99777.34;5094360;28;20039;-58
2023/12/03 04:53:30;;;;;;;1.00;1.00;;;;;;;-4.81;100.00;99778.44;5096462;28;20138;-58
2023/12/03 04:55:57;;;;;;;0.98;0.98;;;;;;;-4.84;100.00;99776.09;5088761;28;20541;-58
2023/12/03 04:58:26;;;;;;;1.10;1.10;;;;;;;-4.86;100.00;99785.03;5097402;28;20071;-58
2023/12/03 05:00:53;;;;;;;1.00;1.00;;;;;;;-4.88;100.00;99784.31;5092928;27;20040;-58
2023/12/03 05:03:20;;;;;;;0.93;0.93;;;;;;;-4.91;100.00;99782.78;5093368;28;20039;-58
2023/12/03 05:05:47;;;;;;;0.90;0.90;;;;;;;-4.95;100.00;99785.78;5089151;28;20079;-59
2023/12/03 05:08:14;;;;;;;0.93;0.93;;;;;;;-4.83;100.00;99784.75;5095559;28;20105;-58
2023/12/03 05:10:41;;;;;;;0.93;0.93;;;;;;;-4.92;100.00;99786.34;5091237;28;20462;-58
2023/12/03 05:13:08;;;;;;;0.90;0.90;;;;;;;-4.88;100.00;99779.09;5092742;28;20486;-58
2023/12/03 05:15:37;;;;;;;0.90;0.90;;;;;;;-4.88;100.00;99785.13;5096790;27;20035;-58
2023/12/03 05:18:04;;;;;;;1.02;1.02;;;;;;;-4.94;100.00;99782.19;5089214;28;20058;-58
2023/12/03 05:20:32;;;;;;;0.85;0.85;;;;;;;-4.88;100.00;99786.94;5094462;28;20051;-58
2023/12/03 05:23:00;;;;;;;0.80;0.80;;;;;;;-4.91;100.00;99790.63;5099052;28;20047;-58
2023/12/03 05:25:27;;;;;;;1.10;1.10;;;;;;;-4.86;100.00;99792.88;5091602;27;20222;-58
2023/12/03 05:27:54;;;;;;;1.00;1.00;;;;;;;-4.89;100.00;99793.09;5088730;28;20532;-57
2023/12/03 05:30:21;;;;;;;1.00;1.00;;;;;;;-4.92;100.00;99804.66;5099184;27;20053;-58
2023/12/03 05:32:49;;;;;;;0.88;0.88;;;;;;;-4.87;100.00;99801.66;5089943;28;20046;-58
2023/12/03 05:35:16;;;;;;;0.90;0.90;;;;;;;-4.91;100.00;99805.50;5093359;28;20137;-57
2023/12/03 05:37:43;;;;;;;1.00;1.00;;;;;;;-4.91;100.00;99810.72;5089838;28;20341;-57
2023/12/03 05:40:11;;;;;;;1.00;1.00;;;;;;;-4.92;100.00;99802.03;5090888;28;20476;-58
2023/12/03 05:42:38;;;;;;;1.08;1.08;;;;;;;-4.77;100.00;99810.38;5097131;28;20036;-60
2023/12/03 05:45:06;;;;;;;0.90;0.90;;;;;;;-4.87;100.00;99815.53;5094521;28;20630;-60
2023/12/03 05:47:34;;;;;;;1.00;1.00;;;;;;;-4.87;100.00;99817.34;5099306;28;20267;-57
2023/12/03 05:50:04;;;;;;;1.10;1.10;;;;;;;-4.88;100.00;99813.91;5092991;28;20154;-60
2023/12/03 05:52:31;;;;;;;0.98;0.98;;;;;;;-4.90;100.00;99817.59;5091298;28;20709;-59
2023/12/03 05:54:58;;;;;;;1.10;1.10;;;;;;;-4.93;100.00;99813.47;5093394;28;20036;-59
2023/12/03 05:57:25;;;;;;;1.00;1.00;;;;;;;-4.85;100.00;99813.63;5095365;28;20560;-59
2023/12/03 05:59:53;;;;;;;0.80;0.80;;;;;;;-4.83;100.00;99810.91;5096533;28;20126;-59
2023/12/03 06:02:20;;;;;;;1.00;1.00;;;;;;;-4.70;100.00;99816.75;5093416;28;20263;-60
2023/12/03 06:04:47;;;;;;;1.10;1.10;;;;;;;-4.82;100.00;99817.78;5094048;27;20047;-60
2023/12/03 06:07:16;;;;;;;0.90;0.90;;;;;;;-4.83;100.00;99818.75;5092770;28;20047;-59
2023/12/03 06:09:43;;;;;;;1.00;1.00;;;;;;;-4.85;100.00;99820.66;5092393;28;20406;-58
2023/12/03 06:12:09;;;;;;;1.10;1.10;;;;;;;-4.76;100.00;99827.75;5094112;28;20146;-59
2023/12/03 06:14:36;;;;;;;1.00;1.00;;;;;;;-4.76;100.00;99832.97;5090307;28;20070;-59
2023/12/03 06:17:04;;;;;;;0.90;0.90;;;;;;;-4.74;100.00;99831.06;5094101;28;20386;-59
2023/12/03 06:19:31;;;;;;;1.00;1.00;;;;;;;-4.67;100.00;99845.25;5090810;28;20040;-59
2023/12/03 06:21:58;;;;;;;0.90;0.90;;;;;;;-4.69;100.00;99854.19;5092370;28;20055;-59
2023/12/03 06:24:26;;;;;;;1.00;1.00;;;;;;;-4.68;100.00;99856.69;5094336;28;20486;-59
2023/12/03 06:26:54;;;;;;;1.02;1.02;;;;;;;-4.59;100.00;99861.16;5090824;28;20039;-59
2023/12/03 06:29:21;;;;;;;0.93;0.93;;;;;;;-4.52;100.00;99858.00;5098241;28;20051;-59
2023/12/03 06:31:48;;;;;;;0.90;0.90;;;;;;;-4.60;100.00;99854.25;5090040;28;20054;-59
2023/12/03 06:34:16;;;;;;;0.90;0.90;;;;;;;-4.63;100.00;99856.31;5089503;28;20048;-59
2023/12/03 06:36:43;;;;;;;1.08;1.08;;;;;;;-4.60;100.00;99854.25;5091808;28;20071;-59
2023/12/03 06:39:10;;;;;;;0.90;0.90;;;;;;;-4.63;100.00;99853.69;5091244;28;20047;-59
2023/12/03 06:41:39;;;;;;;0.90;0.90;;;;;;;-4.61;100.00;99854.38;5092247;28;20140;-59
2023/12/03 06:44:06;;;;;;;0.90;0.90;;;;;;;-4.65;100.00;99851.19;5094753;27;20045;-59
2023/12/03 06:46:39;;;;;;;0.90;0.90;;;;;;;-4.62;100.00;99856.19;5090838;28;20035;-58
2023/12/03 06:49:06;;;;;;;1.10;1.10;;;;;;;-4.53;100.00;99864.19;5090258;28;20047;-59
2023/12/03 06:51:33;;;;;;;1.00;1.00;;;;;;;-4.53;100.00;99865.03;5096371;28;20429;-59
2023/12/03 06:54:02;;;;;;;0.90;0.90;;;;;;;-4.50;100.00;99869.16;5097937;28;20067;-59
2023/12/03 06:56:29;;;;;;;1.00;1.00;;;;;;;-4.52;100.00;99871.09;5103998;27;20537;-59
2023/12/03 06:58:57;;;;;;;1.02;1.02;;;;;;;-4.53;100.00;99879.91;5093010;28;20044;-58
2023/12/03 07:01:24;;;;;;;1.10;1.10;;;;;;;-4.35;100.00;99880.94;5089877;28;20554;-58
2023/12/03 07:03:51;;;;;;;1.00;1.00;;;;;;;-4.43;100.00;99884.22;5091454;28;20131;-59
2023/12/03 07:06:18;;;;;;;1.10;1.10;;;;;;;-4.38;100.00;99883.84;5088047;28;20048;-59
2023/12/03 07:08:45;;;;;;;1.00;1.00;;;;;;;-4.24;100.00;99891.34;5092074;28;20139;-59
2023/12/03 07:11:13;;;;;;;1.00;1.00;;;;;;;-4.31;100.00;99900.69;5103002;27;20222;-59
2023/12/03 07:13:40;;;;;;;1.00;1.00;;;;;;;-4.31;100.00;99915.56;5097467;28;20395;-59
2023/12/03 07:16:10;;;;;;;0.90;0.90;;;;;;;-4.23;100.00;99918.34;5097031;28;20812;-59
2023/12/03 07:18:38;;;;;;;0.90;0.90;;;;;;;-4.09;100.00;99917.16;5096448;28;20487;-59
2023/12/03 07:21:05;;;;;;;1.10;1.10;;;;;;;-4.06;100.00;99930.81;5096777;28;20121;-59
2023/12/03 07:23:32;;;;;;;1.00;1.00;;;;;;;-3.89;100.00;99937.25;5096792;28;20040;-60
2023/12/03 07:25:59;;;;;;;1.10;1.10;;;;;;;-3.95;100.00;99927.28;5098522;28;20047;-59
2023/12/03 07:28:26;;;;;;;1.00;1.00;;;;;;;-3.85;100.00;99922.91;5100737;28;20122;-59
2023/12/03 07:30:53;;;;;;;0.90;0.90;;;;;;;-3.64;100.00;99924.59;5087939;28;20652;-59
2023/12/03 07:33:21;;;;;;;1.10;1.10;;;;;;;-3.61;100.00;99932.22;5102153;28;20131;-59
2023/12/03 07:35:48;;;;;;;1.08;1.08;;;;;;;-3.68;100.00;99924.06;5097234;28;20040;-60
2023/12/03 07:38:15;;;;;;;0.90;0.90;;;;;;;-3.71;100.00;99922.53;5099610;28;20039;-59
2023/12/03 07:40:42;;;;;;;0.95;0.95;;;;;;;-3.64;100.00;99922.00;5101318;27;20043;-59
2023/12/03 07:43:10;;;;;;;1.00;1.00;;;;;;;-3.80;100.00;99915.47;5096551;27;20054;-59
2023/12/03 07:45:37;;;;;;;1.02;1.02;;;;;;;-3.70;100.00;99926.81;5097370;28;20044;-59
2023/12/03 07:48:05;;;;;;;1.00;1.00;;;;;;;-3.49;100.00;99923.28;5095711;28;20047;-59
2023/12/03 07:50:33;;;;;;;0.95;0.95;;;;;;;-3.46;100.00;99920.41;5100796;28;20079;-59
2023/12/03 07:53:00;;;;;;;1.10;1.10;;;;;;;-3.46;100.00;99920.41;5093538;28;20055;-59
2023/12/03 07:55:27;;;;;;;0.90;0.90;;;;;;;-3.35;100.00;99919.44;5097002;28;20130;-59
2023/12/03 07:57:54;;;;;;;0.90;0.90;;;;;;;-3.56;100.00;99920.38;5093659;28;20050;-59
2023/12/03 08:00:21;;;;;;;1.00;1.00;;;;;;;-3.25;100.00;99923.72;5094349;28;20047;-59
2023/12/03 08:02:48;;;;;;;0.98;0.98;;;;;;;-3.23;100.00;99928.00;5095700;28;20122;-59
2023/12/03 08:05:15;;;;;;;1.00;1.00;;;;;;;-2.88;100.00;99930.09;5093403;28;20498;-59
2023/12/03 08:07:43;;;;;;;0.90;0.90;;;;;;;-2.92;100.00;99926.06;5095550;27;20130;-59
2023/12/03 08:10:11;;;;;;;0.90;0.90;;;;;;;-2.61;100.00;99919.72;5092780;28;20044;-59
2023/12/03 08:12:38;;;;;;;0.82;0.82;;;;;;;-2.59;100.00;99911.69;5090941;27;20055;-60
2023/12/03 08:15:06;;;;;;;0.85;0.85;;;;;;;-2.53;100.00;99911.13;5097728;28;20051;-59
2023/12/03 08:17:33;;;;;;;0.80;0.80;;;;;;;-2.69;100.00;99913.53;5097463;28;20517;-59
2023/12/03 08:20:00;;;;;;;0.80;0.80;;;;;;;-2.62;100.00;99917.25;5092124;28;20528;-60
2023/12/03 08:22:27;;;;;;;0.90;0.90;;;;;;;-2.67;100.00;99924.69;5088762;28;20055;-57
2023/12/03 08:24:56;;;;;;;0.73;0.73;;;;;;;-2.36;100.00;99927.94;5097956;28;20039;-58
2023/12/03 08:27:23;;;;;;;0.88;0.88;;;;;;;-2.34;100.00;99919.94;5096102;28;20138;-58
2023/12/03 08:29:50;;;;;;;0.95;0.95;;;;;;;-2.39;100.00;99923.00;5089143;28;20432;-58
2023/12/03 08:32:19;;;;;;;0.98;0.98;;;;;;;-2.23;100.00;99919.75;5096989;27;20398;-59
2023/12/03 08:34:46;;;;;;;0.80;0.80;;;;;;;-2.39;100.00;99918.56;5095799;28;20043;-58
2023/12/03 08:37:13;;;;;;;0.80;0.80;;;;;;;-2.26;100.00;99922.69;5098979;28;20675;-58
2023/12/03 08:39:41;;;;;;;1.00;1.00;;;;;;;-2.13;100.00;99911.84;5092088;28;20375;-58
2023/12/03 08:42:09;;;;;;;0.90;0.90;;;;;;;-2.05;100.00;99912.78;5089408;28;20047;-59
2023/12/03 08:44:37;;;;;;;0.75;0.75;;;;;;;-1.96;100.00;99904.03;5095992;28;20040;-58
2023/12/03 08:47:04;;;;;;;0.80;0.80;;;;;;;-1.16;100.00;99903.41;5094125;28;20040;-58
2023/12/03 08:49:31;;;;;;;0.90;0.90;;;;;;;-1.11;100.00;99901.97;5100222;27;20393;-59
2023/12/03 08:51:58;;;;;;;1.00;1.00;;;;;;;-1.06;97.85;99909.44;5096796;28;20130;-58
2023/12/03 08:54:26;;;;;;;0.70;0.70;;;;;;;0.25;93.49;99907.66;5098228;28;20032;-58
2023/12/03 08:56:53;;;;;;;0.57;0.57;;;;;;;0.38;91.34;99917.75;5090357;28;20059;-59
2023/12/03 08:59:24;;;;;;;1.00;1.00;;;;;;;0.45;91.97;99912.63;5103807;27;20043;-58
2023/12/03 09:01:51;;;;;;;0.90;0.90;;;;;;;-0.98;95.97;99913.94;5098905;28;20044;-58
2023/12/03 09:04:18;;;;;;;1.00;1.00;;;;;;;-0.09;95.99;99910.28;5094945;28;20052;-58
2023/12/03 09:06:46;;;;;;;0.90;0.90;;;;;;;-0.17;95.09;99903.16;5093784;28;20105;-59
2023/12/03 09:09:13;;;;;;;0.90;0.90;;;;;;;0.38;93.06;99913.28;5093073;28;20055;-59
2023/12/03 09:11:42;;;;;;;0.75;0.75;;;;;;;-0.70;95.47;99920.78;5095695;28;20311;-58
2023/12/03 09:14:09;;;;;;;0.90;0.90;;;;;;;-0.13;95.39;99909.75;5095848;28;20573;-59
2023/12/03 09:16:37;;;;;;;0.80;0.80;;;;;;;0.78;92.08;99909.09;5091639;28;20044;-58
2023/12/03 09:19:07;;;;;;;0.90;0.90;;;;;;;-0.28;93.73;99914.78;5092961;28;20124;-58
2023/12/03 09:21:34;;;;;;;0.80;0.80;;;;;;;0.11;93.61;99922.25;5090230;28;20036;-59
2023/12/03 09:24:01;;;;;;;0.70;0.70;;;;;;;-0.03;92.96;99915.75;5091428;28;20465;-58
2023/12/03 09:26:28;;;;;;;1.00;1.00;;;;;;;-0.24;93.17;99924.03;5100405;28;20044;-58
2023/12/03 09:28:55;;;;;;;0.90;0.90;;;;;;;-1.34;99.06;99919.19;5095408;28;20058;-58
2023/12/03 09:31:22;;;;;;;0.93;0.93;;;;;;;-0.13;94.39;99920.31;5106468;27;20122;-59
2023/12/03 09:33:50;;;;;;;0.88;0.88;;;;;;;-0.54;94.52;99921.88;5097244;28;20397;-59
2023/12/03 09:36:17;;;;;;;1.00;1.00;;;;;;;-0.67;95.18;99923.09;5098132;28;20039;-60
2023/12/03 09:38:44;;;;;;;0.90;0.90;;;;;;;0.33;92.64;99920.03;5095524;27;20028;-58
2023/12/03 09:41:13;;;;;;;0.90;0.90;;;;;;;-0.52;91.73;99925.19;5087675;28;20032;-59
2023/12/03 09:43:41;;;;;;;1.00;1.00;;;;;;;-0.49;96.75;99925.69;5096461;28;20044;-58
2023/12/03 09:46:12;;;;;;;0.88;0.88;;;;;;;-0.93;99.44;99928.28;5087811;28;20054;-58
2023/12/03 09:48:40;;;;;;;0.80;0.80;;;;;;;-0.28;96.19;99927.13;5098238;28;20058;-59
2023/12/03 09:51:09;;;;;;;0.90;0.90;;;;;;;0.16;94.18;99935.78;5095074;28;20447;-58
2023/12/03 09:53:36;;;;;;;0.90;0.90;;;;;;;0.29;91.35;99929.25;5090557;28;20418;-59
2023/12/03 09:56:03;;;;;;;0.73;0.73;;;;;;;0.80;91.52;99922.97;5091303;27;20075;-58
2023/12/03 09:58:30;;;;;;;0.75;0.75;;;;;;;1.64;84.88;99928.09;5097683;28;20054;-61
2023/12/03 10:00:57;;;;;;;0.80;0.80;;;;;;;0.62;88.38;99925.75;5092915;28;20097;-59
2023/12/03 10:03:24;;;;;;;0.70;0.70;;;;;;;1.07;87.61;99929.78;5093949;28;20421;-59
2023/12/03 10:05:51;;;;;;;0.80;0.80;;;;;;;1.03;87.46;99925.81;5092143;28;20043;-59
2023/12/03 10:08:19;;;;;;;0.70;0.70;;;;;;;1.24;85.85;99940.34;5091289;28;20052;-59
2023/12/03 10:10:47;;;;;;;0.77;0.77;;;;;;;1.10;86.00;99933.06;5093008;28;20537;-58
2023/12/03 10:13:14;;;;;;;0.70;0.70;;;;;;;-0.03;89.27;99934.19;5088162;28;20124;-58
2023/12/03 10:15:43;;;;;;;0.70;0.70;;;;;;;0.84;87.40;99936.66;5094037;28;20055;-58
2023/12/03 10:18:10;;;;;;;0.80;0.80;;;;;;;1.48;85.48;99940.34;5084544;28;20119;-59
2023/12/03 10:20:39;;;;;;;0.82;0.82;;;;;;;0.79;87.08;99933.69;5091882;28;20071;-58
2023/12/03 10:23:14;;;;;;;0.70;0.70;;;;;;;1.31;85.42;99933.41;5093538;28;20136;-58
2023/12/03 10:25:42;;;;;;;0.60;0.60;;;;;;;0.94;83.82;99929.41;5085282;28;20042;-58
2023/12/03 10:28:10;;;;;;;0.60;0.60;;;;;;;1.45;82.57;99938.03;5093384;28;20039;-59
2023/12/03 10:30:37;;;;;;;0.60;0.60;;;;;;;1.92;80.78;99923.25;5092318;28;20046;-58
2023/12/03 10:33:04;;;;;;;0.60;0.60;;;;;;;1.29;81.12;99924.81;5087061;28;20040;-58
2023/12/03 10:35:33;;;;;;;0.68;0.68;;;;;;;1.33;84.78;99922.69;5097042;28;20040;-59
2023/12/03 10:38:01;;;;;;;0.80;0.80;;;;;;;1.41;81.46;99926.13;5092022;28;20446;-59
2023/12/03 10:40:29;;;;;;;0.70;0.70;;;;;;;0.69;84.28;99922.44;5094637;27;20063;-59
2023/12/03 10:42:57;;;;;;;0.80;0.80;;;;;;;0.87;81.79;99917.84;5096040;28;20151;-58
2023/12/03 10:45:24;;;;;;;0.80;0.80;;;;;;;0.86;81.17;99921.50;5093961;28;20043;-58
2023/12/03 10:47:51;;;;;;;0.80;0.80;;;;;;;0.82;82.14;99914.88;5089664;28;20069;-59
2023/12/03 10:50:18;;;;;;;0.93;0.93;;;;;;;0.99;80.76;99915.72;5092533;28;20048;-58
2023/12/03 10:52:45;;;;;;;0.70;0.70;;;;;;;0.45;82.37;99913.50;5091397;28;20043;-58
2023/12/03 10:55:12;;;;;;;0.75;0.75;;;;;;;0.76;84.23;99918.19;5096296;28;20141;-58
2023/12/03 10:57:44;;;;;;;0.70;0.70;;;;;;;1.07;82.32;99913.94;5090195;28;20493;-59
2023/12/03 11:00:13;;;;;;;0.70;0.70;;;;;;;1.07;81.30;99919.22;5089732;28;20055;-60
2023/12/03 11:02:44;;;;;;;0.77;0.77;;;;;;;0.13;85.42;99908.91;5093727;28;20366;-59
2023/12/03 11:05:13;;;;;;;0.68;0.68;;;;;;;0.02;85.35;99907.38;5094072;28;20552;-59
2023/12/03 11:07:40;;;;;;;0.80;0.80;;;;;;;-0.11;86.89;99901.72;5092809;28;20508;-59
2023/12/03 11:10:08;;;;;;;0.80;0.80;;;;;;;-0.03;87.87;99901.75;5085405;28;20510;-59
2023/12/03 11:12:35;;;;;;;0.95;0.95;;;;;;;-0.34;87.96;99898.78;5088802;28;20051;-59
2023/12/03 11:15:02;;;;;;;0.60;0.60;;;;;;;-0.32;87.43;99899.47;5097892;28;20482;-59
2023/12/03 11:17:33;;;;;;;0.90;0.90;;;;;;;-0.04;87.19;99892.19;5091411;28;20039;-59
2023/12/03 11:20:07;;;;;;;0.80;0.80;;;;;;;0.20;85.74;99889.66;5093978;28;20125;-60
2023/12/03 11:22:42;;;;;;;0.90;0.90;;;;;;;0.10;86.75;99883.69;5099750;28;20155;-60
2023/12/03 11:25:11;;;;;;;0.60;0.60;;;;;;;-0.02;86.17;99884.97;5095709;28;20040;-58
2023/12/03 11:27:41;;;;;;;0.80;0.80;;;;;;;0.10;86.35;99881.06;5100404;27;20214;-60
2023/12/03 11:30:10;;;;;;;0.70;0.70;;;;;;;0.29;85.20;99884.41;5096296;28;20105;-60